Time;durP1;ratioP1;P1;durP2;ratioP2;P2;SDS_P1;SDS_P2;PMS_P1;PMS_P2;Temp;Humidity;BMP_temperature;BMP_pressure;BME280_temperature;BME280_humidity;BME280_pressure;Samples;Min_cycle;Max_cycle;Signal;HPM_P1;HPM_P2
2021/05/21 00:01:29;;;;;;;1.23;0.70;;;;;;;15.56;31.62;100535.19;3502152;41;20051;-72
2021/05/21 00:03:57;;;;;;;1.58;0.70;;;;;;;15.54;31.80;100533.66;3530591;40;20149;-71
2021/05/21 00:06:25;;;;;;;0.88;0.70;;;;;;;15.52;31.99;100525.56;3533629;40;20046;-71
2021/05/21 00:08:52;;;;;;;1.77;0.80;;;;;;;15.51;32.21;100514.69;3532786;40;20035;-71
2021/05/21 00:11:20;;;;;;;1.67;0.93;;;;;;;15.49;31.64;100512.13;3532953;40;20055;-72
2021/05/21 00:13:48;;;;;;;1.90;0.70;;;;;;;15.48;31.78;100506.81;3532829;40;20048;-71
2021/05/21 00:16:15;;;;;;;1.10;0.77;;;;;;;15.46;32.28;100503.34;3532681;40;20058;-71
2021/05/21 00:18:46;;;;;;;0.77;0.50;;;;;;;15.47;32.39;100505.94;3532489;40;20051;-70
2021/05/21 00:21:14;;;;;;;0.85;0.60;;;;;;;15.42;31.75;100494.56;3532556;40;20335;-71
2021/05/21 00:23:43;;;;;;;2.28;0.60;;;;;;;15.39;32.01;100495.75;3532417;40;20047;-72
2021/05/21 00:26:12;;;;;;;1.38;0.70;;;;;;;15.42;31.74;100500.91;3511700;41;20486;-71
2021/05/21 00:28:39;;;;;;;2.53;0.70;;;;;;;15.38;31.82;100480.28;3511848;41;20047;-72
2021/05/21 00:31:07;;;;;;;1.08;0.52;;;;;;;15.39;31.72;100478.38;3511544;41;20072;-72
2021/05/21 00:33:35;;;;;;;1.75;0.77;;;;;;;15.38;32.23;100482.16;3511327;41;20066;-72
2021/05/21 00:36:04;;;;;;;1.00;0.60;;;;;;;15.38;31.92;100480.28;3524615;40;20066;-71
2021/05/21 00:38:32;;;;;;;1.35;0.90;;;;;;;15.35;31.95;100475.09;3532470;40;20396;-71
2021/05/21 00:41:00;;;;;;;0.73;0.50;;;;;;;15.34;31.91;100469.75;3532713;40;20406;-72
2021/05/21 00:43:28;;;;;;;1.15;0.60;;;;;;;15.33;32.35;100473.53;3533136;40;20043;-72
2021/05/21 00:45:55;;;;;;;1.13;0.60;;;;;;;15.32;31.96;100471.81;3524016;40;20034;-71
2021/05/21 00:48:23;;;;;;;0.98;0.70;;;;;;;15.30;32.23;100463.75;3532889;40;20039;-72
2021/05/21 00:50:51;;;;;;;0.90;0.57;;;;;;;15.30;32.47;100463.75;3532945;40;20047;-70
2021/05/21 00:53:21;;;;;;;1.52;0.57;;;;;;;15.32;32.16;100456.13;3532648;40;20435;-72
2021/05/21 00:55:50;;;;;;;1.38;0.60;;;;;;;15.29;32.36;100448.22;3532944;40;20039;-70
2021/05/21 00:58:17;;;;;;;0.50;0.50;;;;;;;15.29;32.07;100444.63;3533310;40;20048;-72
2021/05/21 01:00:46;;;;;;;0.93;0.50;;;;;;;15.28;32.52;100432.72;3533809;40;20080;-71
2021/05/21 01:03:13;;;;;;;0.80;0.50;;;;;;;15.27;32.15;100431.00;3525294;40;20032;-71
2021/05/21 01:05:41;;;;;;;0.77;0.50;;;;;;;15.26;32.34;100423.75;3534027;40;20043;-70
2021/05/21 01:08:09;;;;;;;0.77;0.60;;;;;;;15.27;32.42;100427.38;3534182;40;20114;-72
2021/05/21 01:10:39;;;;;;;0.47;0.40;;;;;;;15.27;32.43;100417.22;3533637;40;20394;-71
2021/05/21 01:13:06;;;;;;;1.13;0.50;;;;;;;15.27;32.09;100419.13;3533497;40;20399;-71
2021/05/21 01:15:37;;;;;;;0.98;0.55;;;;;;;15.27;32.15;100408.09;3533901;40;20292;-72
2021/05/21 01:18:05;;;;;;;1.50;0.70;;;;;;;15.26;32.13;100409.13;3525253;40;20036;-72
2021/05/21 01:20:34;;;;;;;1.10;0.47;;;;;;;15.26;32.29;100411.88;3533809;40;20118;-71
2021/05/21 01:23:01;;;;;;;2.33;0.60;;;;;;;15.24;32.50;100412.06;3533425;40;20039;-72
2021/05/21 01:25:29;;;;;;;1.83;0.60;;;;;;;15.23;32.63;100412.25;3533604;40;20046;-72
2021/05/21 01:27:58;;;;;;;2.38;0.50;;;;;;;15.23;32.60;100404.81;3533589;40;20091;-72
2021/05/21 01:30:28;;;;;;;1.23;0.63;;;;;;;15.24;32.32;100391.91;3533977;40;20168;-69
2021/05/21 01:32:56;;;;;;;0.82;0.50;;;;;;;15.22;32.45;100389.34;3533754;40;20093;-71
2021/05/21 01:35:23;;;;;;;0.95;0.50;;;;;;;15.21;32.49;100384.88;3533385;40;20031;-71
2021/05/21 01:37:52;;;;;;;0.80;0.50;;;;;;;15.22;32.67;100378.31;3522123;40;20047;-71
2021/05/21 01:40:19;;;;;;;1.23;0.52;;;;;;;15.21;32.96;100378.50;3522409;40;20043;-72
2021/05/21 01:42:48;;;;;;;1.13;0.63;;;;;;;15.20;32.83;100377.63;3513862;40;20095;-72
2021/05/21 01:45:15;;;;;;;1.27;0.60;;;;;;;15.20;32.88;100374.88;3521910;40;20048;-71
2021/05/21 01:47:47;;;;;;;0.70;0.65;;;;;;;15.22;32.74;100369.19;3522038;40;20482;-71
2021/05/21 01:50:15;;;;;;;1.10;0.63;;;;;;;15.19;32.57;100356.63;3522055;40;20044;-71
2021/05/21 01:52:44;;;;;;;1.42;0.60;;;;;;;15.20;32.44;100352.84;3521632;40;20339;-70
2021/05/21 01:55:13;;;;;;;1.20;0.80;;;;;;;15.20;32.72;100351.97;3522124;40;20043;-72
2021/05/21 01:57:42;;;;;;;0.82;0.60;;;;;;;15.18;32.92;100354.03;3521973;40;20036;-72
2021/05/21 02:00:12;;;;;;;1.58;0.60;;;;;;;15.18;32.64;100351.28;3522152;40;20052;-71
2021/05/21 02:02:40;;;;;;;1.33;0.55;;;;;;;15.17;32.59;100347.66;3521786;40;20131;-70
2021/05/21 02:05:10;;;;;;;1.33;0.50;;;;;;;15.18;32.66;100343.88;3521982;40;20036;-71
2021/05/21 02:07:38;;;;;;;1.52;0.70;;;;;;;15.17;32.79;100344.91;3522048;40;20071;-72
2021/05/21 02:10:07;;;;;;;0.90;0.50;;;;;;;15.18;32.50;100335.59;3531698;40;20035;-72
2021/05/21 02:12:37;;;;;;;1.73;0.50;;;;;;;15.18;32.79;100329.22;3531409;40;20494;-71
2021/05/21 02:15:07;;;;;;;1.52;0.70;;;;;;;15.17;32.87;100330.25;3504008;41;20104;-72
2021/05/21 02:17:37;;;;;;;1.55;0.68;;;;;;;15.16;32.54;100334.06;3512462;41;20409;-71
2021/05/21 02:20:06;;;;;;;0.90;0.45;;;;;;;15.17;32.97;100324.75;3511857;41;20412;-71
2021/05/21 02:22:39;;;;;;;1.38;0.57;;;;;;;15.17;32.72;100322.88;3511979;40;20416;-72
2021/05/21 02:25:08;;;;;;;0.85;0.50;;;;;;;15.15;32.42;100321.34;3521317;40;20095;-72
2021/05/21 02:27:37;;;;;;;1.27;0.60;;;;;;;15.15;32.67;100308.41;3521717;40;20359;-72
2021/05/21 02:30:25;;;;;;;1.08;0.43;;;;;;;15.12;32.87;100308.75;3502399;41;20092;-73
2021/05/21 02:32:54;;;;;;;1.23;0.60;;;;;;;15.13;32.98;100316.00;3502200;41;20202;-72
2021/05/21 02:35:22;;;;;;;1.65;0.70;;;;;;;15.11;32.65;100295.16;3502280;41;20045;-72
2021/05/21 02:37:51;;;;;;;0.60;0.57;;;;;;;15.12;32.97;100306.00;3502602;41;20064;-73
2021/05/21 02:40:20;;;;;;;0.95;0.52;;;;;;;15.11;32.94;100308.94;3502677;41;20037;-72
2021/05/21 02:42:51;;;;;;;1.00;0.60;;;;;;;15.09;33.09;100298.09;3502380;41;20040;-72
2021/05/21 02:45:22;;;;;;;2.33;0.50;;;;;;;15.06;32.67;100292.94;3501910;41;20092;-71
2021/05/21 02:47:50;;;;;;;0.88;0.50;;;;;;;15.07;32.67;100294.63;3494796;41;20047;-72
2021/05/21 02:50:17;;;;;;;1.60;0.40;;;;;;;15.06;32.69;100293.78;3501986;41;20041;-72
2021/05/21 02:52:46;;;;;;;1.38;0.70;;;;;;;15.06;33.08;100288.25;3561548;23;20047;-80
2021/05/21 02:55:14;;;;;;;1.25;0.63;;;;;;;15.05;32.96;100289.34;3560392;40;20029;-80
2021/05/21 02:57:42;;;;;;;1.60;0.50;;;;;;;15.04;33.31;100281.22;3561260;40;20034;-79
2021/05/21 03:00:12;;;;;;;2.53;0.70;;;;;;;15.05;32.99;100286.56;3560964;40;20058;-79
2021/05/21 03:02:40;;;;;;;0.85;0.35;;;;;;;15.03;32.89;100283.13;3561374;40;20430;-79
2021/05/21 03:05:08;;;;;;;0.75;0.50;;;;;;;15.02;32.96;100286.91;3561384;40;20360;-79
2021/05/21 03:07:36;;;;;;;2.45;0.77;;;;;;;15.01;33.25;100278.81;3564231;40;20034;-79
2021/05/21 03:10:04;;;;;;;2.05;0.60;;;;;;;15.00;32.82;100277.09;3551532;40;20050;-80
2021/05/21 03:12:33;;;;;;;2.35;0.60;;;;;;;14.98;33.42;100280.03;3557479;40;20025;-79
2021/05/21 03:15:01;;;;;;;1.15;0.80;;;;;;;14.98;33.27;100276.44;3551415;40;20034;-80
2021/05/21 03:17:32;;;;;;;1.27;0.63;;;;;;;14.98;33.08;100268.19;3542978;40;20418;-79
2021/05/21 03:19:59;;;;;;;1.10;0.60;;;;;;;14.97;32.90;100259.06;3550702;40;20042;-80
2021/05/21 03:22:28;;;;;;;1.00;0.60;;;;;;;14.96;33.14;100251.81;3543121;40;20291;-79
2021/05/21 03:25:01;;;;;;;1.10;0.70;;;;;;;14.95;32.97;100254.75;3560152;40;20034;-79
2021/05/21 03:27:29;;;;;;;2.20;0.70;;;;;;;14.92;33.29;100235.81;3550143;40;20545;-80
2021/05/21 03:29:58;;;;;;;1.27;0.50;;;;;;;14.91;32.87;100239.59;3542760;40;20037;-82
2021/05/21 03:32:26;;;;;;;1.40;0.90;;;;;;;14.90;33.08;100243.41;3567845;40;20066;-79
2021/05/21 03:34:55;;;;;;;1.80;0.70;;;;;;;14.89;33.18;100247.19;3550589;40;20042;-79
2021/05/21 03:37:23;;;;;;;0.93;0.60;;;;;;;14.86;33.25;100242.88;3556659;40;20155;-80
2021/05/21 03:39:52;;;;;;;2.10;0.52;;;;;;;14.84;33.34;100225.66;3551964;40;20041;-79
2021/05/21 03:42:19;;;;;;;1.90;0.68;;;;;;;14.82;33.36;100236.00;3541588;40;20108;-79
2021/05/21 03:44:48;;;;;;;1.55;0.70;;;;;;;14.81;33.60;100227.94;3550407;40;20121;-79
2021/05/21 03:47:16;;;;;;;0.85;0.60;;;;;;;14.79;33.62;100230.84;3543347;40;20435;-81
2021/05/21 03:49:44;;;;;;;1.42;0.60;;;;;;;14.78;33.50;100233.78;3541467;40;20343;-80
2021/05/21 03:52:13;;;;;;;1.30;0.50;;;;;;;14.78;33.53;100233.78;3547533;40;20038;-79
2021/05/21 03:54:41;;;;;;;1.27;0.82;;;;;;;14.74;33.45;100230.47;3551343;40;20489;-79
2021/05/21 03:57:09;;;;;;;1.88;0.60;;;;;;;14.73;33.53;100230.66;3560086;40;20045;-79
2021/05/21 03:59:37;;;;;;;1.13;0.70;;;;;;;14.71;33.37;100227.22;3551003;40;20061;-79
2021/05/21 04:02:05;;;;;;;1.65;0.60;;;;;;;14.69;33.73;100220.00;3560267;40;20037;-79
2021/05/21 04:04:32;;;;;;;1.95;0.80;;;;;;;14.68;33.39;100221.03;3551129;40;20042;-79
2021/05/21 04:07:00;;;;;;;1.63;0.70;;;;;;;14.66;33.72;100217.56;3560992;40;20048;-79
2021/05/21 04:09:31;;;;;;;1.83;0.70;;;;;;;14.67;33.93;100213.78;3560465;40;20042;-78
2021/05/21 04:11:59;;;;;;;2.08;0.70;;;;;;;14.65;33.74;100204.00;3543784;40;20031;-80
2021/05/21 04:14:29;;;;;;;1.10;0.57;;;;;;;14.64;33.50;100203.16;3541530;40;20145;-79
2021/05/21 04:16:56;;;;;;;2.47;0.60;;;;;;;14.63;33.74;100209.69;3550249;40;20050;-79
2021/05/21 04:19:24;;;;;;;1.70;0.73;;;;;;;14.63;34.02;100211.59;3551320;40;20038;-79
2021/05/21 04:21:53;;;;;;;1.27;0.68;;;;;;;14.62;33.70;100213.47;3567812;40;20032;-80
2021/05/21 04:24:20;;;;;;;0.55;0.55;;;;;;;14.62;34.33;100193.34;3556092;40;20065;-79
2021/05/21 04:26:50;;;;;;;1.52;0.88;;;;;;;14.63;33.95;100200.56;3550609;40;20082;-79
2021/05/21 04:29:17;;;;;;;2.15;0.85;;;;;;;14.61;33.87;100195.22;3549186;40;20067;-79
2021/05/21 04:31:45;;;;;;;0.82;0.60;;;;;;;14.62;33.75;100196.09;3549689;40;20050;-79
2021/05/21 04:34:13;;;;;;;1.83;0.70;;;;;;;14.61;33.85;100197.97;3549744;40;20503;-79
2021/05/21 04:36:41;;;;;;;2.00;0.90;;;;;;;14.62;34.04;100193.34;3558483;40;20034;-79
2021/05/21 04:39:09;;;;;;;2.42;0.70;;;;;;;14.61;34.07;100192.47;3559953;40;20068;-79
2021/05/21 04:41:37;;;;;;;0.98;0.57;;;;;;;14.61;34.08;100186.97;3559417;40;20030;-79
2021/05/21 04:44:31;;;;;;;1.13;0.57;;;;;;;14.60;34.47;100182.50;3549900;40;20046;-79
2021/05/21 04:46:59;;;;;;;1.17;0.70;;;;;;;14.60;34.26;100193.50;3558179;40;20034;-79
2021/05/21 04:49:33;;;;;;;2.08;0.70;;;;;;;14.63;34.52;100186.81;3559025;40;20042;-79
2021/05/21 04:52:04;;;;;;;3.05;1.13;;;;;;;14.65;33.94;100184.75;3550239;40;20384;-79
2021/05/21 04:54:33;;;;;;;1.63;0.70;;;;;;;14.66;34.69;100183.69;3554808;40;20128;-79
2021/05/21 04:57:01;;;;;;;0.80;0.60;;;;;;;14.65;34.41;100191.06;3549224;40;20306;-79
2021/05/21 04:59:29;;;;;;;3.15;0.80;;;;;;;14.67;34.03;100186.25;3550472;40;20038;-79
2021/05/21 05:01:59;;;;;;;1.52;0.80;;;;;;;14.70;34.27;100187.81;3559555;40;20038;-79
2021/05/21 05:04:27;;;;;;;1.75;0.90;;;;;;;14.69;34.39;100181.44;3546011;40;20030;-79
2021/05/21 05:06:56;;;;;;;1.35;0.70;;;;;;;14.72;34.60;100180.25;3541612;40;20053;-79
2021/05/21 05:09:24;;;;;;;1.75;0.70;;;;;;;14.75;34.24;100179.03;3546328;40;20050;-79
2021/05/21 05:11:52;;;;;;;1.85;0.57;;;;;;;14.75;34.29;100179.88;3550213;40;20294;-79
2021/05/21 05:14:20;;;;;;;1.80;0.73;;;;;;;14.78;34.37;100170.44;3558937;40;20038;-79
2021/05/21 05:16:48;;;;;;;1.58;0.68;;;;;;;14.79;34.69;100169.41;3558690;40;20066;-79
2021/05/21 05:19:16;;;;;;;1.30;0.70;;;;;;;14.81;34.24;100167.34;3560618;40;20026;-79
2021/05/21 05:21:45;;;;;;;0.88;0.70;;;;;;;14.83;34.31;100170.78;3558674;40;20034;-81
2021/05/21 05:24:17;;;;;;;1.42;0.70;;;;;;;14.87;34.77;100173.00;3550934;40;20383;-80
2021/05/21 05:26:45;;;;;;;1.90;0.60;;;;;;;14.87;34.49;100170.25;3550361;40;20030;-79
2021/05/21 05:29:13;;;;;;;0.90;0.70;;;;;;;14.88;34.52;100169.22;3540162;40;20054;-79
2021/05/21 05:31:42;;;;;;;1.33;0.80;;;;;;;14.91;34.27;100162.47;3548445;40;20418;-78
2021/05/21 05:34:10;;;;;;;1.50;0.70;;;;;;;14.92;34.30;100167.81;3550278;40;20116;-80
2021/05/21 05:36:39;;;;;;;2.60;0.82;;;;;;;14.96;34.22;100165.56;3559352;40;20372;-79
2021/05/21 05:39:06;;;;;;;1.67;0.68;;;;;;;14.94;34.42;100163.00;3544382;40;20042;-78
2021/05/21 05:41:34;;;;;;;2.05;0.80;;;;;;;14.95;34.43;100161.97;3550739;40;20446;-83
2021/05/21 05:44:02;;;;;;;1.27;0.85;;;;;;;14.97;34.21;100154.38;3552978;40;20030;-83
2021/05/21 05:46:30;;;;;;;2.33;0.73;;;;;;;14.97;34.40;100161.78;3553119;40;20034;-84
2021/05/21 05:48:58;;;;;;;1.52;0.90;;;;;;;14.96;34.26;100152.66;3543311;40;20403;-80
2021/05/21 05:51:26;;;;;;;1.10;0.70;;;;;;;14.96;34.36;100160.06;3542471;40;20031;-80
2021/05/21 05:53:55;;;;;;;1.92;0.77;;;;;;;14.98;34.51;100163.50;3551704;40;20038;-80
2021/05/21 05:56:22;;;;;;;1.65;1.08;;;;;;;14.96;34.24;100146.31;3543542;40;20034;-83
2021/05/21 05:58:51;;;;;;;2.25;0.82;;;;;;;14.96;34.26;100146.31;3543331;40;20023;-80
2021/05/21 06:01:19;;;;;;;1.85;0.80;;;;;;;14.97;34.56;100148.03;3551853;40;20038;-79
2021/05/21 06:03:47;;;;;;;1.42;0.70;;;;;;;14.96;34.86;100141.66;3560932;40;20041;-81
2021/05/21 06:06:17;;;;;;;1.80;0.80;;;;;;;14.95;34.88;100142.69;3561907;40;20038;-79
2021/05/21 06:08:56;;;;;;;1.30;0.80;;;;;;;14.98;34.75;100136.81;3552804;40;20120;-80
2021/05/21 06:11:24;;;;;;;2.30;1.13;;;;;;;15.00;34.68;100144.88;3561668;40;20050;-80
2021/05/21 06:13:54;;;;;;;3.42;1.13;;;;;;;14.99;34.39;100146.78;3560531;40;20026;-81
2021/05/21 06:16:22;;;;;;;2.35;0.93;;;;;;;15.01;34.79;100149.38;3561695;40;20372;-81
2021/05/21 06:18:51;;;;;;;2.22;0.90;;;;;;;15.03;35.07;100139.91;3561006;40;20030;-80
2021/05/21 06:21:19;;;;;;;4.97;1.20;;;;;;;15.06;34.57;100139.53;3561941;40;20042;-81
2021/05/21 06:23:47;;;;;;;2.30;1.05;;;;;;;15.10;35.01;100134.53;3551907;40;20030;-80
2021/05/21 06:26:33;;;;;;;1.38;0.80;;;;;;;15.15;34.91;100117.47;3562325;40;20041;-79
2021/05/21 06:29:02;;;;;;;3.65;1.10;;;;;;;15.21;34.70;100136.88;3557240;40;20124;-79
2021/05/21 06:31:33;;;;;;;3.38;1.00;;;;;;;15.26;34.51;100137.19;3555118;40;20038;-78
2021/05/21 06:34:01;;;;;;;3.25;1.00;;;;;;;15.27;34.30;100127.03;3561103;40;20038;-78
2021/05/21 06:36:28;;;;;;;2.75;1.02;;;;;;;15.29;34.36;100130.47;3543626;40;20046;-78
2021/05/21 06:38:56;;;;;;;3.70;0.90;;;;;;;15.29;34.69;100127.72;3560384;40;20038;-78
2021/05/21 06:41:25;;;;;;;2.50;0.98;;;;;;;15.32;34.27;100121.81;3559634;40;20044;-78
2021/05/21 06:43:54;;;;;;;3.10;1.33;;;;;;;15.35;34.01;100133.34;3549580;40;20061;-77
2021/05/21 06:46:22;;;;;;;3.13;1.00;;;;;;;15.37;34.37;100127.69;3560047;40;20041;-79
2021/05/21 06:48:50;;;;;;;2.38;0.90;;;;;;;15.40;34.11;100130.03;3553689;40;20093;-79
2021/05/21 06:51:19;;;;;;;1.90;1.00;;;;;;;15.43;34.04;100126.94;3558886;40;20053;-76
2021/05/21 06:53:47;;;;;;;2.70;1.02;;;;;;;15.48;34.73;100131.94;3556667;40;20030;-80
2021/05/21 06:56:16;;;;;;;2.83;1.02;;;;;;;15.53;34.63;100146.00;3542379;40;20085;-81
2021/05/21 06:58:44;;;;;;;2.13;1.05;;;;;;;15.59;34.29;100115.81;3551333;40;20039;-81
2021/05/21 07:01:13;;;;;;;3.38;1.30;;;;;;;15.67;34.22;100124.06;3534487;40;20039;-81
2021/05/21 07:03:40;;;;;;;3.50;0.90;;;;;;;15.75;34.79;100137.78;3557513;40;20030;-79
2021/05/21 07:06:08;;;;;;;2.67;1.20;;;;;;;15.88;34.29;100136.31;3548638;40;20053;-77
2021/05/21 07:08:36;;;;;;;1.67;0.93;;;;;;;15.99;34.40;100120.16;3557162;40;20082;-79
2021/05/21 07:11:04;;;;;;;3.88;1.15;;;;;;;16.15;33.81;100139.34;3551404;40;20046;-82
2021/05/21 07:13:32;;;;;;;4.90;1.20;;;;;;;16.27;33.36;100123.19;3542520;40;20041;-78
2021/05/21 07:16:01;;;;;;;2.60;1.15;;;;;;;16.33;33.52;100136.25;3542352;40;20053;-80
2021/05/21 07:18:29;;;;;;;2.92;1.15;;;;;;;16.42;33.22;100123.22;3551387;40;20049;-79
2021/05/21 07:21:02;;;;;;;3.72;1.10;;;;;;;16.46;32.81;100121.81;3542555;40;20034;-80
2021/05/21 07:23:30;;;;;;;4.28;1.08;;;;;;;16.50;33.18;100129.56;3551130;40;20038;-82
2021/05/21 07:25:58;;;;;;;3.78;1.20;;;;;;;16.61;33.33;100119.09;3554793;40;20036;-77
2021/05/21 07:28:26;;;;;;;1.83;1.08;;;;;;;16.70;32.98;100118.81;3545766;40;20109;-76
2021/05/21 07:30:54;;;;;;;3.50;1.10;;;;;;;16.82;33.36;100133.00;3556266;40;20152;-75
2021/05/21 07:33:22;;;;;;;3.67;1.13;;;;;;;16.97;32.38;100119.16;3557511;40;20080;-76
2021/05/21 07:35:51;;;;;;;3.22;1.17;;;;;;;17.12;32.65;100120.03;3557554;40;20319;-76
2021/05/21 07:38:19;;;;;;;3.63;1.20;;;;;;;17.26;32.41;100124.66;3547951;40;20062;-76
2021/05/21 07:40:47;;;;;;;3.05;1.20;;;;;;;17.41;31.46;100121.88;3557149;40;20061;-76
2021/05/21 07:43:16;;;;;;;4.25;1.40;;;;;;;17.52;30.85;100121.38;3550893;40;20046;-73
2021/05/21 07:45:43;;;;;;;1.83;0.95;;;;;;;17.55;30.73;100119.06;3547935;40;20050;-74
2021/05/21 07:48:11;;;;;;;5.22;1.40;;;;;;;17.59;30.17;100131.47;3557608;40;20053;-76
2021/05/21 07:50:39;;;;;;;4.20;1.27;;;;;;;17.59;29.86;100125.09;3548229;40;20066;-79
2021/05/21 07:53:30;;;;;;;5.40;1.67;;;;;;;17.57;29.90;100127.19;3556442;40;20049;-77
2021/05/21 07:55:59;;;;;;;4.63;1.13;;;;;;;17.50;29.41;100126.25;3544001;40;20030;-79
2021/05/21 07:58:26;;;;;;;3.83;1.15;;;;;;;17.45;29.48;100114.94;3558493;40;20054;-79
2021/05/21 08:00:55;;;;;;;4.80;1.13;;;;;;;17.37;29.04;100126.97;3549236;40;20127;-77
2021/05/21 08:03:23;;;;;;;6.20;1.30;;;;;;;17.30;29.37;100104.75;3557406;40;20431;-78
2021/05/21 08:05:51;;;;;;;4.20;1.10;;;;;;;17.27;29.13;100118.97;3557458;40;20112;-79
2021/05/21 08:08:21;;;;;;;7.18;1.50;;;;;;;17.26;28.55;100110.84;3558076;40;20057;-80
2021/05/21 08:10:51;;;;;;;4.88;1.10;;;;;;;17.23;28.98;100123.13;3551823;40;20041;-81
2021/05/21 08:13:19;;;;;;;2.95;1.05;;;;;;;17.22;29.26;100098.44;3560811;40;20295;-84
2021/05/21 08:15:47;;;;;;;6.03;1.60;;;;;;;17.25;28.96;100120.19;3560914;40;20078;-83
2021/05/21 08:18:15;;;;;;;4.43;1.15;;;;;;;17.29;29.16;100127.06;3552969;40;20322;-82
2021/05/21 08:20:43;;;;;;;4.20;1.70;;;;;;;17.35;28.55;100142.03;3561173;40;20135;-84
2021/05/21 08:23:13;;;;;;;4.68;1.40;;;;;;;17.41;27.86;100119.13;3560701;40;20038;-82
2021/05/21 08:25:41;;;;;;;5.47;1.20;;;;;;;17.37;27.84;100126.09;3560423;40;20107;-79
2021/05/21 08:28:10;;;;;;;6.10;1.42;;;;;;;17.40;28.03;100123.78;3556796;40;20030;-82
2021/05/21 08:30:38;;;;;;;5.03;1.33;;;;;;;17.36;28.03;100119.72;3552521;40;20046;-84
2021/05/21 08:33:08;;;;;;;5.28;1.50;;;;;;;17.32;27.75;100121.16;3544021;40;20085;-82
2021/05/21 08:35:36;;;;;;;5.72;1.63;;;;;;;17.29;28.05;100111.31;3562408;40;20018;-78
2021/05/21 08:38:04;;;;;;;4.15;1.48;;;;;;;17.32;28.24;100101.78;3560389;40;20088;-79
2021/05/21 08:40:36;;;;;;;4.18;1.23;;;;;;;17.34;28.39;100124.59;3560696;40;20027;-82
2021/05/21 08:43:06;;;;;;;3.63;1.30;;;;;;;17.37;27.91;100115.91;3541987;40;20424;-78
2021/05/21 08:45:35;;;;;;;5.53;1.52;;;;;;;17.45;28.25;100120.47;3548491;40;20050;-76
2021/05/21 08:48:04;;;;;;;6.72;1.48;;;;;;;17.49;27.76;100125.41;3552126;40;20030;-78
2021/05/21 08:50:32;;;;;;;6.78;1.35;;;;;;;17.55;27.51;100129.28;3551558;40;20112;-79
2021/05/21 08:53:00;;;;;;;5.50;1.38;;;;;;;17.61;26.99;100120.22;3557269;40;20030;-81
2021/05/21 08:55:27;;;;;;;4.97;1.40;;;;;;;17.66;26.73;100135.16;3549829;40;20307;-80
2021/05/21 08:57:55;;;;;;;3.05;1.40;;;;;;;17.71;26.33;100126.25;3559787;40;20300;-77
2021/05/21 09:00:23;;;;;;;6.35;1.40;;;;;;;17.73;26.76;100139.91;3544516;40;20056;-71
2021/05/21 09:02:52;;;;;;;3.95;1.50;;;;;;;17.75;26.59;100130.34;3547536;40;20663;-77
2021/05/21 09:05:20;;;;;;;4.57;1.40;;;;;;;17.76;26.21;100139.53;3550021;40;20030;-79
2021/05/21 09:07:48;;;;;;;4.13;1.58;;;;;;;17.75;26.25;100146.97;3558817;40;20434;-78
2021/05/21 09:10:18;;;;;;;5.32;1.40;;;;;;;17.77;25.46;100155.06;3542391;40;20033;-84
2021/05/21 09:12:47;;;;;;;3.20;1.30;;;;;;;17.74;25.51;100148.00;3550755;40;20391;-80
2021/05/21 09:15:17;;;;;;;5.20;1.73;;;;;;;17.70;25.27;100155.00;3549747;40;20030;-80
2021/05/21 09:17:54;;;;;;;4.90;1.40;;;;;;;17.72;25.02;100154.78;3561927;40;20049;-78
2021/05/21 09:20:24;;;;;;;4.72;1.17;;;;;;;17.68;25.21;100144.13;3561673;40;20037;-77
2021/05/21 09:23:05;;;;;;;4.28;1.50;;;;;;;17.74;24.97;100145.25;3552200;40;20049;-80
2021/05/21 09:25:44;;;;;;;3.30;1.00;;;;;;;17.74;24.67;100144.38;3548827;40;20041;-76
2021/05/21 09:28:34;;;;;;;4.32;1.17;;;;;;;17.78;25.26;100132.75;3552200;40;20036;-81
2021/05/21 09:31:07;;;;;;;4.22;1.20;;;;;;;17.81;24.59;100151.69;3558138;40;20058;-80
2021/05/21 09:33:37;;;;;;;8.18;1.58;;;;;;;17.82;24.80;100130.44;3553119;40;20496;-80
2021/05/21 09:36:05;;;;;;;4.90;1.25;;;;;;;17.82;24.34;100134.03;3560843;40;20063;-77
2021/05/21 09:38:44;;;;;;;4.15;1.17;;;;;;;17.88;23.70;100126.84;3550111;40;20120;-77
2021/05/21 09:41:14;;;;;;;3.97;1.08;;;;;;;17.84;23.84;100131.94;3551470;40;20042;-79
2021/05/21 09:43:49;;;;;;;3.95;1.50;;;;;;;17.91;23.56;100134.78;3561940;40;20116;-81
2021/05/21 09:46:17;;;;;;;3.15;1.20;;;;;;;17.90;24.01;100138.59;3552338;40;20093;-79
2021/05/21 09:48:46;;;;;;;4.78;1.42;;;;;;;17.91;24.11;100129.25;3543230;40;20423;-79
2021/05/21 09:51:15;;;;;;;4.28;1.13;;;;;;;17.93;23.83;100127.13;3543131;40;20037;-81
2021/05/21 09:53:46;;;;;;;3.97;1.20;;;;;;;17.94;24.06;100121.41;3543617;40;20054;-80
2021/05/21 09:56:20;;;;;;;3.60;1.23;;;;;;;17.99;23.62;100134.63;3553001;40;20050;-77
2021/05/21 09:58:52;;;;;;;3.88;1.20;;;;;;;17.95;23.93;100128.63;3548959;40;20038;-78
2021/05/21 10:01:22;;;;;;;5.13;1.52;;;;;;;17.95;23.89;100127.78;3543525;40;20108;-78
2021/05/21 10:03:53;;;;;;;4.50;1.65;;;;;;;17.96;23.97;100126.72;3558352;40;20280;-79
2021/05/21 10:06:22;;;;;;;3.63;1.23;;;;;;;17.92;23.98;100129.06;3555344;40;20040;-77
2021/05/21 10:08:54;;;;;;;4.78;1.40;;;;;;;17.90;23.70;100136.69;3559934;40;20037;-82
2021/05/21 10:11:22;;;;;;;4.55;1.52;;;;;;;17.83;24.27;100155.13;3559811;40;20042;-80
2021/05/21 10:13:52;;;;;;;3.58;1.00;;;;;;;17.83;24.00;100145.97;3550239;40;20038;-77
2021/05/21 10:16:22;;;;;;;4.00;1.33;;;;;;;17.83;24.15;100126.59;3559831;40;20052;-78
2021/05/21 10:18:51;;;;;;;4.13;1.40;;;;;;;17.84;24.24;100131.94;3557726;40;20038;-77
2021/05/21 10:21:22;;;;;;;5.15;1.55;;;;;;;17.80;23.95;100138.91;3557244;40;20050;-76
2021/05/21 10:23:54;;;;;;;3.13;1.10;;;;;;;17.82;23.68;100138.72;3557799;40;20053;-76
2021/05/21 10:26:28;;;;;;;4.70;1.42;;;;;;;17.80;23.83;100154.66;3546185;40;20049;-78
2021/05/21 10:28:58;;;;;;;4.43;1.52;;;;;;;17.75;23.88;100146.97;3558826;40;20037;-77
2021/05/21 10:31:27;;;;;;;4.32;1.17;;;;;;;17.72;24.03;100143.72;3550211;40;20417;-77
2021/05/21 10:34:13;;;;;;;4.05;1.30;;;;;;;17.66;24.32;100146.22;3570187;40;20054;-79
2021/05/21 10:37:20;;;;;;;2.90;1.00;;;;;;;17.64;24.03;100137.25;3565236;40;20057;-77
2021/05/21 10:40:09;;;;;;;4.95;1.60;;;;;;;17.62;24.15;100152.31;3559743;40;20042;-78
2021/05/21 10:42:58;;;;;;;3.22;1.15;;;;;;;17.59;24.85;100137.00;3557958;40;20120;-76
2021/05/21 10:45:53;;;;;;;3.92;1.08;;;;;;;17.61;24.26;100123.84;3552031;40;20085;-77
2021/05/21 10:48:26;;;;;;;5.63;1.30;;;;;;;17.65;24.42;100121.53;3535783;40;20054;-77
2021/05/21 10:51:09;;;;;;;2.50;1.10;;;;;;;17.65;24.43;100125.16;3548599;40;20116;-77
2021/05/21 10:53:40;;;;;;;4.35;1.45;;;;;;;17.70;24.43;100114.34;3543797;40;20031;-78
2021/05/21 10:56:08;;;;;;;5.25;1.35;;;;;;;17.75;25.23;100108.22;3550263;40;20042;-78
2021/05/21 10:58:43;;;;;;;4.80;1.33;;;;;;;17.84;24.85;100095.13;3559783;40;20041;-78
2021/05/21 11:01:16;;;;;;;5.55;1.33;;;;;;;17.91;24.59;100101.56;3551015;40;20385;-75
2021/05/21 11:04:07;;;;;;;5.32;1.48;;;;;;;17.97;24.30;100103.53;3546894;40;20554;-77
2021/05/21 11:06:51;;;;;;;4.57;1.58;;;;;;;18.03;23.90;100100.00;3542316;40;20037;-77
2021/05/21 11:09:24;;;;;;;4.60;1.20;;;;;;;18.02;24.14;100106.59;3552792;40;20272;-75
2021/05/21 11:11:58;;;;;;;4.03;1.02;;;;;;;18.03;23.31;100113.84;3547147;40;20056;-78
2021/05/21 11:14:35;;;;;;;4.07;1.23;;;;;;;18.08;23.66;100105.81;3557668;40;20056;-79
2021/05/21 11:17:12;;;;;;;4.85;1.40;;;;;;;18.08;23.04;100100.28;3546056;40;20037;-78
2021/05/21 11:19:49;;;;;;;4.68;1.50;;;;;;;18.11;23.12;100090.72;3555200;40;20042;-78
2021/05/21 11:22:28;;;;;;;2.20;1.08;;;;;;;18.06;23.67;100075.56;3546049;40;20548;-71
2021/05/21 11:24:59;;;;;;;5.00;1.25;;;;;;;18.07;24.58;100090.25;3539451;40;20077;-71
2021/05/21 11:27:30;;;;;;;2.83;1.42;;;;;;;18.12;24.96;100084.97;3553141;40;20063;-71
2021/05/21 11:30:04;;;;;;;3.42;1.27;;;;;;;18.17;24.43;100070.53;3556157;40;20062;-71
2021/05/21 11:32:33;;;;;;;3.38;1.10;;;;;;;18.20;24.93;100081.19;3556174;40;20061;-71
2021/05/21 11:35:01;;;;;;;4.03;1.30;;;;;;;18.25;24.19;100084.22;3554263;40;20062;-71
2021/05/21 11:37:30;;;;;;;5.30;1.30;;;;;;;18.32;24.15;100071.28;3551464;40;20395;-71